createdAt,value
2016-09-01T00:00:16.759Z,0
2016-09-01T00:00:40.928Z,0
2016-09-01T00:01:07.533Z,0
2016-09-01T00:01:31.702Z,0
2016-09-01T00:01:55.847Z,0
2016-09-01T00:02:20.047Z,0
2016-09-01T00:02:46.500Z,0
2016-09-01T00:03:10.638Z,0
2016-09-01T00:03:34.783Z,0
2016-09-01T00:03:58.969Z,0
2016-09-01T00:04:23.129Z,0
2016-09-01T00:04:47.282Z,0
2016-09-01T00:05:11.430Z,0
2016-09-01T00:05:35.596Z,0
2016-09-01T00:05:59.731Z,0
2016-09-01T00:06:23.869Z,0
2016-09-01T00:06:48.025Z,0
2016-09-01T00:07:12.191Z,0
2016-09-01T00:07:36.319Z,0
2016-09-01T00:08:00.463Z,0
2016-09-01T00:08:24.625Z,0
2016-09-01T00:08:48.767Z,0
2016-09-01T00:09:13.010Z,0
2016-09-01T00:09:37.134Z,0
2016-09-01T00:10:01.368Z,0
2016-09-01T00:10:25.535Z,0
2016-09-01T00:10:49.661Z,0
2016-09-01T00:11:13.811Z,0
2016-09-01T00:11:37.984Z,0
2016-09-01T00:12:02.114Z,0
2016-09-01T00:12:26.267Z,0
2016-09-01T00:12:50.419Z,0
2016-09-01T00:13:14.593Z,0
2016-09-01T00:13:38.744Z,0
2016-09-01T00:14:02.873Z,0
2016-09-01T00:14:27.031Z,0
2016-09-01T00:14:51.169Z,0
2016-09-01T00:15:16.226Z,0
2016-09-01T00:15:40.391Z,0
2016-09-01T00:16:04.548Z,0
2016-09-01T00:16:28.698Z,0
2016-09-01T00:16:52.844Z,0
2016-09-01T00:17:16.991Z,0
2016-09-01T00:17:41.132Z,0
2016-09-01T00:18:05.283Z,0
2016-09-01T00:18:29.425Z,0
2016-09-01T00:18:53.574Z,0
2016-09-01T00:19:17.725Z,0
2016-09-01T00:19:41.883Z,0
2016-09-01T00:20:06.019Z,0
2016-09-01T00:20:30.216Z,0
2016-09-01T00:20:54.363Z,0
2016-09-01T00:21:18.498Z,0
2016-09-01T00:21:42.639Z,0
2016-09-01T00:22:06.785Z,0
2016-09-01T00:22:30.921Z,0
2016-09-01T00:22:55.072Z,0
2016-09-01T00:23:19.212Z,0
2016-09-01T00:23:43.357Z,0
2016-09-01T00:24:07.505Z,0
2016-09-01T00:24:31.664Z,0
2016-09-01T00:24:55.792Z,0
2016-09-01T00:25:19.945Z,0
2016-09-01T00:25:44.103Z,0
2016-09-01T00:26:08.260Z,0
2016-09-01T00:26:32.408Z,0
2016-09-01T00:26:56.580Z,0
2016-09-01T00:27:20.730Z,0
2016-09-01T00:27:44.855Z,0
2016-09-01T00:28:08.993Z,0
2016-09-01T00:28:33.141Z,0
2016-09-01T00:28:57.271Z,0
2016-09-01T00:29:21.427Z,0
2016-09-01T00:29:45.562Z,0
2016-09-01T00:30:09.735Z,0
2016-09-01T00:30:33.888Z,0
2016-09-01T00:30:58.029Z,0
2016-09-01T00:31:22.190Z,0
2016-09-01T00:31:46.345Z,0
2016-09-01T00:32:10.498Z,0
2016-09-01T00:32:34.672Z,0
2016-09-01T00:32:58.836Z,0
2016-09-01T00:33:22.991Z,0
2016-09-01T00:33:47.159Z,0
2016-09-01T00:34:11.326Z,0
2016-09-01T00:34:35.483Z,0
2016-09-01T00:34:59.644Z,0
2016-09-01T00:35:23.866Z,0
2016-09-01T00:35:48.006Z,0
2016-09-01T00:36:12.167Z,0
2016-09-01T00:36:36.350Z,0
2016-09-01T00:37:00.531Z,0
2016-09-01T00:37:24.676Z,0
2016-09-01T00:37:48.831Z,0
2016-09-01T00:38:13.002Z,0
2016-09-01T00:38:37.171Z,0
2016-09-01T00:39:01.320Z,0
2016-09-01T00:39:25.465Z,0
2016-09-01T00:39:49.630Z,0
2016-09-01T00:40:13.804Z,0
2016-09-01T00:40:37.931Z,0
2016-09-01T00:41:02.080Z,0
2016-09-01T00:41:26.267Z,0
2016-09-01T00:41:50.394Z,0
2016-09-01T00:42:14.530Z,0
2016-09-01T00:42:38.686Z,0
2016-09-01T00:43:02.825Z,0
2016-09-01T00:43:27.000Z,0
2016-09-01T00:43:51.141Z,0
2016-09-01T00:44:15.293Z,0
2016-09-01T00:44:39.461Z,0
2016-09-01T00:45:03.628Z,0
2016-09-01T00:45:27.816Z,0
2016-09-01T00:45:51.997Z,0
2016-09-01T00:46:16.178Z,0
2016-09-01T00:46:40.346Z,0
2016-09-01T00:47:04.514Z,0
2016-09-01T00:47:28.681Z,0
2016-09-01T00:47:52.817Z,0
2016-09-01T00:48:16.982Z,0
2016-09-01T00:48:41.129Z,0
2016-09-01T00:49:05.293Z,0
2016-09-01T00:49:29.447Z,0
2016-09-01T00:49:53.612Z,0
2016-09-01T00:50:17.996Z,0
2016-09-01T00:50:42.139Z,0
2016-09-01T00:51:06.294Z,0
2016-09-01T00:51:30.459Z,0
2016-09-01T00:51:54.617Z,0
2016-09-01T00:52:18.791Z,0
2016-09-01T00:52:42.935Z,0
2016-09-01T00:53:07.093Z,0
2016-09-01T00:53:31.265Z,0
2016-09-01T00:53:55.442Z,0
2016-09-01T00:54:19.588Z,0
2016-09-01T00:54:43.767Z,0
2016-09-01T00:55:07.926Z,0
2016-09-01T00:55:32.347Z,0
2016-09-01T00:55:56.497Z,0
2016-09-01T00:56:20.678Z,0
2016-09-01T00:56:44.830Z,0
2016-09-01T00:57:08.954Z,0
2016-09-01T00:57:33.118Z,0
2016-09-01T00:57:57.276Z,0
2016-09-01T00:58:21.431Z,0
2016-09-01T00:58:45.581Z,0
2016-09-01T00:59:09.736Z,0
2016-09-01T00:59:33.891Z,0
2016-09-01T00:59:58.041Z,0
2016-09-01T01:00:23.507Z,0
2016-09-01T01:00:47.672Z,0
2016-09-01T01:01:11.835Z,0
2016-09-01T01:01:35.987Z,0
2016-09-01T01:02:00.150Z,0
2016-09-01T01:02:24.346Z,0
2016-09-01T01:02:48.502Z,0
2016-09-01T01:03:12.631Z,0
2016-09-01T01:03:36.772Z,0
2016-09-01T01:04:00.921Z,0
2016-09-01T01:04:25.110Z,0
2016-09-01T01:04:49.259Z,0
2016-09-01T01:05:13.608Z,0
2016-09-01T01:05:37.805Z,0
2016-09-01T01:06:01.963Z,0
2016-09-01T01:06:26.107Z,0
2016-09-01T01:06:50.289Z,0
2016-09-01T01:07:14.449Z,0
2016-09-01T01:07:38.602Z,0
2016-09-01T01:08:02.750Z,0
2016-09-01T01:08:26.907Z,0
2016-09-01T01:08:51.077Z,0
2016-09-01T01:09:15.229Z,0
2016-09-01T01:09:39.394Z,0
2016-09-01T01:10:03.531Z,0
2016-09-01T01:10:27.853Z,0
2016-09-01T01:10:52.001Z,0
2016-09-01T01:11:16.153Z,0
2016-09-01T01:11:40.314Z,0
2016-09-01T01:12:04.492Z,0
2016-09-01T01:12:28.644Z,0
2016-09-01T01:12:52.784Z,0
2016-09-01T01:13:16.940Z,0
2016-09-01T01:13:41.070Z,0
2016-09-01T01:14:05.208Z,0
2016-09-01T01:14:29.370Z,0
2016-09-01T01:14:53.537Z,0
2016-09-01T01:15:17.726Z,0
2016-09-01T01:15:41.951Z,0
2016-09-01T01:16:06.113Z,0
2016-09-01T01:16:30.265Z,0
2016-09-01T01:16:54.404Z,0
2016-09-01T01:17:18.555Z,0
2016-09-01T01:17:42.725Z,0
2016-09-01T01:18:06.880Z,0
2016-09-01T01:18:31.041Z,0
2016-09-01T01:18:55.175Z,0
2016-09-01T01:19:19.351Z,0
2016-09-01T01:19:43.507Z,0
2016-09-01T01:20:07.650Z,0
2016-09-01T01:20:32.226Z,0
2016-09-01T01:20:56.392Z,0
2016-09-01T01:21:20.539Z,0
2016-09-01T01:21:44.693Z,0
2016-09-01T01:22:08.837Z,0
2016-09-01T01:22:32.980Z,0
2016-09-01T01:22:57.131Z,0
2016-09-01T01:23:21.258Z,0
2016-09-01T01:23:45.397Z,0
2016-09-01T01:24:09.546Z,0
2016-09-01T01:24:33.704Z,0
2016-09-01T01:24:57.835Z,0
2016-09-01T01:25:21.976Z,0
2016-09-01T01:25:46.141Z,0
2016-09-01T01:26:10.302Z,0
2016-09-01T01:26:34.449Z,0
2016-09-01T01:26:58.614Z,0
2016-09-01T01:27:22.759Z,0
2016-09-01T01:27:46.905Z,0
2016-09-01T01:28:11.071Z,0
2016-09-01T01:28:35.220Z,0
2016-09-01T01:28:59.363Z,0
2016-09-01T01:29:23.514Z,0
2016-09-01T01:29:47.651Z,0
2016-09-01T01:30:11.807Z,0
2016-09-01T01:30:35.953Z,0
2016-09-01T01:31:00.113Z,0
2016-09-01T01:31:24.242Z,0
2016-09-01T01:31:48.423Z,0
2016-09-01T01:32:11.876Z,0
2016-09-01T01:32:36.035Z,0
2016-09-01T01:33:00.172Z,0
2016-09-01T01:33:24.327Z,0
2016-09-01T01:33:48.467Z,0
2016-09-01T01:34:12.622Z,0
2016-09-01T01:34:36.785Z,0
2016-09-01T01:35:00.961Z,0
2016-09-01T01:35:25.133Z,0
2016-09-01T01:35:49.279Z,0
2016-09-01T01:36:13.432Z,0
2016-09-01T01:36:37.623Z,0
2016-09-01T01:37:01.779Z,0
2016-09-01T01:37:25.926Z,0
2016-09-01T01:37:50.091Z,0
2016-09-01T01:38:14.245Z,0
2016-09-01T01:38:38.404Z,0
2016-09-01T01:39:02.534Z,0
2016-09-01T01:39:26.669Z,0
2016-09-01T01:39:50.829Z,0
2016-09-01T01:40:15.136Z,0
2016-09-01T01:40:39.305Z,0
2016-09-01T01:41:03.457Z,0
2016-09-01T01:41:27.620Z,0
2016-09-01T01:41:51.803Z,0
2016-09-01T01:42:15.950Z,0
2016-09-01T01:42:40.114Z,0
2016-09-01T01:43:04.281Z,0
2016-09-01T01:43:28.450Z,0
2016-09-01T01:43:52.605Z,0
2016-09-01T01:44:16.753Z,0
2016-09-01T01:44:40.899Z,0
2016-09-01T01:45:05.031Z,0
2016-09-01T01:45:29.983Z,0
2016-09-01T01:45:54.117Z,0
2016-09-01T01:46:18.285Z,0
2016-09-01T01:46:42.443Z,0
2016-09-01T01:47:06.604Z,0
2016-09-01T01:47:30.765Z,0
2016-09-01T01:47:54.930Z,0
2016-09-01T01:48:19.076Z,0
2016-09-01T01:48:43.227Z,0
2016-09-01T01:49:07.379Z,0
2016-09-01T01:49:31.534Z,0
2016-09-01T01:49:55.660Z,0
2016-09-01T01:50:19.981Z,0
2016-09-01T01:50:44.130Z,0
2016-09-01T01:51:08.292Z,0
2016-09-01T01:51:32.432Z,0
2016-09-01T01:51:56.572Z,0
2016-09-01T01:52:20.756Z,0
2016-09-01T01:52:44.888Z,0
2016-09-01T01:53:09.046Z,0
2016-09-01T01:53:33.202Z,0
2016-09-01T01:53:57.368Z,0
2016-09-01T01:54:21.554Z,0
2016-09-01T01:54:45.699Z,0
2016-09-01T01:55:09.844Z,0
2016-09-01T01:55:33.990Z,0
2016-09-01T01:55:58.127Z,0
2016-09-01T01:56:22.284Z,0
2016-09-01T01:56:46.440Z,0
2016-09-01T01:57:10.599Z,0
2016-09-01T01:57:34.775Z,0
2016-09-01T01:57:58.903Z,0
2016-09-01T01:58:23.058Z,0
2016-09-01T01:58:47.232Z,0
2016-09-01T01:59:11.413Z,0
2016-09-01T01:59:35.570Z,0
2016-09-01T01:59:59.725Z,0
2016-09-01T02:00:23.891Z,0
2016-09-01T02:00:48.048Z,0
2016-09-01T02:01:12.183Z,0
2016-09-01T02:01:36.356Z,0
2016-09-01T02:02:00.529Z,0
2016-09-01T02:02:24.693Z,0
2016-09-01T02:02:48.854Z,0
2016-09-01T02:03:13.015Z,0
2016-09-01T02:03:37.183Z,0
2016-09-01T02:04:01.339Z,0
2016-09-01T02:04:25.488Z,0
2016-09-01T02:04:49.634Z,0
2016-09-01T02:05:13.852Z,0
2016-09-01T02:05:38.015Z,0
2016-09-01T02:06:02.146Z,0
2016-09-01T02:06:26.298Z,0
2016-09-01T02:06:50.453Z,0
2016-09-01T02:07:14.644Z,0
2016-09-01T02:07:38.806Z,0
2016-09-01T02:08:02.952Z,0
2016-09-01T02:08:27.123Z,0
2016-09-01T02:08:51.248Z,0
2016-09-01T02:09:15.413Z,0
2016-09-01T02:09:39.585Z,0
2016-09-01T02:10:03.745Z,0
2016-09-01T02:10:28.178Z,0
2016-09-01T02:10:52.346Z,0
2016-09-01T02:11:16.503Z,0
2016-09-01T02:11:40.717Z,0
2016-09-01T02:12:06.846Z,0
2016-09-01T02:12:30.976Z,0
2016-09-01T02:12:55.119Z,0
2016-09-01T02:13:19.272Z,0
2016-09-01T02:13:43.415Z,0
2016-09-01T02:14:08.399Z,0
2016-09-01T02:14:32.537Z,0
2016-09-01T02:14:56.691Z,0
2016-09-01T02:15:20.832Z,0
2016-09-01T02:15:44.988Z,0
2016-09-01T02:16:09.152Z,0
2016-09-01T02:16:33.311Z,0
2016-09-01T02:16:57.442Z,0
2016-09-01T02:17:21.601Z,0
2016-09-01T02:17:45.771Z,0
2016-09-01T02:18:09.902Z,0
2016-09-01T02:18:34.077Z,0
2016-09-01T02:18:58.230Z,0
2016-09-01T02:19:22.388Z,0
2016-09-01T02:19:46.557Z,0
2016-09-01T02:20:10.692Z,0
2016-09-01T02:20:34.856Z,0
2016-09-01T02:20:59.026Z,0
2016-09-01T02:21:23.173Z,0
2016-09-01T02:21:47.337Z,0
2016-09-01T02:22:11.479Z,0
2016-09-01T02:22:35.630Z,0
2016-09-01T02:22:59.763Z,0
2016-09-01T02:23:23.883Z,0
2016-09-01T02:23:48.016Z,0
2016-09-01T02:24:12.190Z,0
2016-09-01T02:24:36.345Z,0
2016-09-01T02:25:00.479Z,0
2016-09-01T02:25:24.618Z,0
2016-09-01T02:25:48.793Z,0
2016-09-01T02:26:12.953Z,0
2016-09-01T02:26:37.097Z,0
2016-09-01T02:27:01.255Z,0
2016-09-01T02:27:25.422Z,0
2016-09-01T02:27:49.565Z,0
2016-09-01T02:28:13.711Z,0
2016-09-01T02:28:37.891Z,0
2016-09-01T02:29:02.059Z,0
2016-09-01T02:29:26.224Z,0
2016-09-01T02:29:50.371Z,0
2016-09-01T02:30:14.507Z,0
2016-09-01T02:30:38.647Z,0
2016-09-01T02:31:02.794Z,0
2016-09-01T02:31:26.927Z,0
2016-09-01T02:31:51.094Z,0
2016-09-01T02:32:15.242Z,0
2016-09-01T02:32:39.382Z,0
2016-09-01T02:33:03.521Z,0
2016-09-01T02:33:27.659Z,0
2016-09-01T02:33:51.806Z,0
2016-09-01T02:34:15.961Z,0
2016-09-01T02:34:40.164Z,0
2016-09-01T02:35:04.336Z,0
2016-09-01T02:35:28.548Z,0
2016-09-01T02:35:52.705Z,0
2016-09-01T02:36:16.836Z,0
2016-09-01T02:36:41.005Z,0
2016-09-01T02:37:05.164Z,0
2016-09-01T02:37:29.297Z,0
2016-09-01T02:37:53.454Z,0
2016-09-01T02:38:17.622Z,0
2016-09-01T02:38:41.774Z,0
2016-09-01T02:39:05.921Z,0
2016-09-01T02:39:30.045Z,0
2016-09-01T02:39:54.198Z,0
2016-09-01T02:40:18.363Z,0
2016-09-01T02:40:42.612Z,0
2016-09-01T02:41:06.733Z,0
2016-09-01T02:41:30.906Z,0
2016-09-01T02:41:55.052Z,0
2016-09-01T02:42:19.190Z,0
2016-09-01T02:42:43.337Z,0
2016-09-01T02:43:07.503Z,0
2016-09-01T02:43:31.652Z,0
2016-09-01T02:43:55.793Z,0
2016-09-01T02:44:19.946Z,0
2016-09-01T02:44:44.150Z,0
2016-09-01T02:45:08.301Z,0
2016-09-01T02:45:32.448Z,0
2016-09-01T02:45:56.601Z,0
2016-09-01T02:46:20.741Z,0
2016-09-01T02:46:44.876Z,0
2016-09-01T02:47:09.030Z,0
2016-09-01T02:47:33.190Z,0
2016-09-01T02:47:57.329Z,0
2016-09-01T02:48:21.504Z,0
2016-09-01T02:48:45.636Z,0
2016-09-01T02:49:09.781Z,0
2016-09-01T02:49:33.948Z,0
2016-09-01T02:49:58.094Z,0
2016-09-01T02:50:22.228Z,0
2016-09-01T02:50:46.373Z,0
2016-09-01T02:51:10.495Z,0
2016-09-01T02:51:34.653Z,0
2016-09-01T02:51:58.810Z,0
2016-09-01T02:52:22.955Z,0
2016-09-01T02:52:47.130Z,0
2016-09-01T02:53:11.255Z,0
2016-09-01T02:53:35.397Z,0
2016-09-01T02:53:59.558Z,0
2016-09-01T02:54:23.732Z,0
2016-09-01T02:54:47.893Z,0
2016-09-01T02:55:12.367Z,0
2016-09-01T02:55:36.520Z,0
2016-09-01T02:56:00.670Z,0
2016-09-01T02:56:24.828Z,0
2016-09-01T02:56:48.979Z,0
2016-09-01T02:57:13.141Z,0
2016-09-01T02:57:37.312Z,0
2016-09-01T02:58:01.463Z,0
2016-09-01T02:58:25.611Z,0
2016-09-01T02:58:49.761Z,0
2016-09-01T02:59:13.925Z,0
2016-09-01T02:59:38.063Z,0
2016-09-01T03:00:02.235Z,0
2016-09-01T03:00:26.406Z,0
2016-09-01T03:00:50.566Z,0
2016-09-01T03:01:14.697Z,0
2016-09-01T03:01:38.827Z,0
2016-09-01T03:02:02.983Z,0
2016-09-01T03:02:27.131Z,0
2016-09-01T03:02:51.264Z,0
2016-09-01T03:03:15.410Z,0
2016-09-01T03:03:39.558Z,0
2016-09-01T03:04:03.697Z,0
2016-09-01T03:04:27.870Z,0
2016-09-01T03:04:52.031Z,0
2016-09-01T03:05:16.177Z,0
2016-09-01T03:05:40.307Z,0
2016-09-01T03:06:04.450Z,0
2016-09-01T03:06:28.631Z,0
2016-09-01T03:06:52.834Z,0
2016-09-01T03:07:16.958Z,0
2016-09-01T03:07:41.140Z,0
2016-09-01T03:08:05.296Z,0
2016-09-01T03:08:29.441Z,0
2016-09-01T03:08:53.575Z,0
2016-09-01T03:09:17.735Z,0
2016-09-01T03:09:41.907Z,0
2016-09-01T03:10:06.050Z,0
2016-09-01T03:10:30.185Z,0
2016-09-01T03:10:54.338Z,0
2016-09-01T03:11:18.493Z,0
2016-09-01T03:11:42.651Z,0
2016-09-01T03:12:06.785Z,0
2016-09-01T03:12:30.938Z,0
2016-09-01T03:12:55.098Z,0
2016-09-01T03:13:19.237Z,0
2016-09-01T03:13:43.399Z,0
2016-09-01T03:14:07.557Z,0
2016-09-01T03:14:31.711Z,0
2016-09-01T03:14:55.849Z,0
2016-09-01T03:15:19.987Z,0
2016-09-01T03:15:44.154Z,0
2016-09-01T03:16:08.314Z,0
2016-09-01T03:16:32.440Z,0
2016-09-01T03:16:56.576Z,0
2016-09-01T03:17:20.749Z,0
2016-09-01T03:17:44.894Z,0
2016-09-01T03:18:09.035Z,0
2016-09-01T03:18:33.206Z,0
2016-09-01T03:18:57.370Z,0
2016-09-01T03:19:21.519Z,0
2016-09-01T03:19:45.687Z,0
2016-09-01T03:20:09.979Z,0
2016-09-01T03:20:34.137Z,0
2016-09-01T03:20:58.263Z,0
2016-09-01T03:21:22.412Z,0
2016-09-01T03:21:46.588Z,0
2016-09-01T03:22:10.761Z,0
2016-09-01T03:22:34.884Z,0
2016-09-01T03:22:59.037Z,0
2016-09-01T03:23:23.213Z,0
2016-09-01T03:23:47.350Z,0
2016-09-01T03:24:11.501Z,0
2016-09-01T03:24:35.660Z,0
2016-09-01T03:24:59.814Z,0
2016-09-01T03:25:23.951Z,0
2016-09-01T03:25:48.090Z,0
2016-09-01T03:26:12.253Z,0
2016-09-01T03:26:36.378Z,0
2016-09-01T03:27:00.520Z,0
2016-09-01T03:27:24.644Z,0
2016-09-01T03:27:48.806Z,0
2016-09-01T03:28:12.961Z,0
2016-09-01T03:28:37.124Z,0
2016-09-01T03:29:01.281Z,0
2016-09-01T03:29:25.423Z,0
2016-09-01T03:29:49.577Z,0
2016-09-01T03:30:14.414Z,0
2016-09-01T03:30:38.713Z,0
2016-09-01T03:31:02.870Z,0
2016-09-01T03:31:27.011Z,0
2016-09-01T03:31:51.135Z,0
2016-09-01T03:32:15.289Z,0
2016-09-01T03:32:39.444Z,0
2016-09-01T03:33:03.582Z,0
2016-09-01T03:33:27.742Z,0
2016-09-01T03:33:51.881Z,0
2016-09-01T03:34:16.027Z,0
2016-09-01T03:34:40.169Z,0
2016-09-01T03:35:04.354Z,0
2016-09-01T03:35:28.516Z,0
2016-09-01T03:35:53.354Z,0
2016-09-01T03:36:17.481Z,0
2016-09-01T03:36:41.635Z,0
2016-09-01T03:37:05.813Z,0
2016-09-01T03:37:29.969Z,0
2016-09-01T03:37:54.122Z,0
2016-09-01T03:38:18.286Z,0
2016-09-01T03:38:42.458Z,0
2016-09-01T03:39:06.582Z,0
2016-09-01T03:39:30.727Z,0
2016-09-01T03:39:54.897Z,0
2016-09-01T03:40:19.068Z,0
2016-09-01T03:40:43.185Z,0
2016-09-01T03:41:07.340Z,0
2016-09-01T03:41:31.495Z,0
2016-09-01T03:41:55.672Z,0
2016-09-01T03:42:19.828Z,0
2016-09-01T03:42:43.975Z,0
2016-09-01T03:43:08.116Z,0
2016-09-01T03:43:32.255Z,0
2016-09-01T03:43:56.392Z,0
2016-09-01T03:44:20.573Z,0
2016-09-01T03:44:44.740Z,0
2016-09-01T03:45:08.895Z,0
2016-09-01T03:45:33.207Z,0
2016-09-01T03:45:57.349Z,0
2016-09-01T03:46:21.527Z,0
2016-09-01T03:46:45.703Z,0
2016-09-01T03:47:09.864Z,0
2016-09-01T03:47:34.050Z,0
2016-09-01T03:47:58.210Z,0
2016-09-01T03:48:22.362Z,0
2016-09-01T03:48:46.513Z,0
2016-09-01T03:49:10.664Z,0
2016-09-01T03:49:34.809Z,0
2016-09-01T03:49:58.955Z,0
2016-09-01T03:50:23.104Z,0
2016-09-01T03:50:47.257Z,0
2016-09-01T03:51:11.394Z,0
2016-09-01T03:51:35.543Z,0
2016-09-01T03:51:59.709Z,0
2016-09-01T03:52:23.857Z,0
2016-09-01T03:52:47.995Z,0
2016-09-01T03:53:12.146Z,0
2016-09-01T03:53:37.165Z,0
2016-09-01T03:54:01.294Z,0
2016-09-01T03:54:25.456Z,0
2016-09-01T03:54:49.610Z,0
2016-09-01T03:55:13.828Z,0
2016-09-01T03:55:37.980Z,0
2016-09-01T03:56:02.127Z,0
2016-09-01T03:56:26.282Z,0
2016-09-01T03:56:50.434Z,0
2016-09-01T03:57:14.569Z,0
2016-09-01T03:57:38.711Z,0
2016-09-01T03:58:02.867Z,0
2016-09-01T03:58:27.014Z,0
2016-09-01T03:58:51.192Z,0
2016-09-01T03:59:15.347Z,0
2016-09-01T03:59:39.528Z,0
2016-09-01T04:00:03.668Z,0
2016-09-01T04:00:27.822Z,0
2016-09-01T04:00:51.997Z,0
2016-09-01T04:01:16.143Z,0
2016-09-01T04:01:40.313Z,0
2016-09-01T04:02:04.484Z,0
2016-09-01T04:02:28.638Z,0
2016-09-01T04:02:52.758Z,0
2016-09-01T04:03:16.947Z,0
2016-09-01T04:03:41.091Z,0
2016-09-01T04:04:05.244Z,0
2016-09-01T04:04:29.410Z,0
2016-09-01T04:04:53.560Z,0
2016-09-01T04:05:17.866Z,0
2016-09-01T04:05:42.023Z,0
2016-09-01T04:06:06.165Z,0
2016-09-01T04:06:30.320Z,0
2016-09-01T04:06:54.474Z,0
2016-09-01T04:07:18.645Z,0
2016-09-01T04:07:42.755Z,0
2016-09-01T04:08:06.911Z,0
2016-09-01T04:08:31.071Z,0
2016-09-01T04:08:55.236Z,0
2016-09-01T04:09:19.389Z,0
2016-09-01T04:09:43.530Z,0
2016-09-01T04:10:07.717Z,0
2016-09-01T04:10:31.869Z,0
2016-09-01T04:10:56.010Z,0
2016-09-01T04:11:20.185Z,0
2016-09-01T04:11:44.365Z,0
2016-09-01T04:12:08.538Z,0
2016-09-01T04:12:32.822Z,0
2016-09-01T04:12:56.985Z,0
2016-09-01T04:13:21.158Z,5
2016-09-01T04:13:45.295Z,5
2016-09-01T04:14:09.452Z,5
2016-09-01T04:14:33.601Z,5
2016-09-01T04:14:57.788Z,5
2016-09-01T04:15:21.932Z,5
2016-09-01T04:15:46.081Z,5
2016-09-01T04:16:10.234Z,5
2016-09-01T04:16:34.392Z,5
2016-09-01T04:16:58.544Z,5
2016-09-01T04:17:22.685Z,5
2016-09-01T04:17:46.848Z,5
2016-09-01T04:18:10.988Z,5
2016-09-01T04:18:35.135Z,5
2016-09-01T04:18:59.286Z,5
2016-09-01T04:19:23.458Z,5
2016-09-01T04:19:47.600Z,5
2016-09-01T04:20:11.752Z,5
2016-09-01T04:20:35.908Z,5
2016-09-01T04:21:00.065Z,10
2016-09-01T04:21:24.210Z,10
2016-09-01T04:21:48.354Z,10
2016-09-01T04:22:12.509Z,10
2016-09-01T04:22:36.649Z,10
2016-09-01T04:23:00.792Z,10
2016-09-01T04:23:24.995Z,10
2016-09-01T04:23:49.179Z,10
2016-09-01T04:24:13.318Z,10
2016-09-01T04:24:37.489Z,10
2016-09-01T04:25:01.656Z,10
2016-09-01T04:25:25.818Z,10
2016-09-01T04:25:49.969Z,10
2016-09-01T04:26:14.160Z,10
2016-09-01T04:26:38.311Z,15
2016-09-01T04:27:02.439Z,15
2016-09-01T04:27:26.573Z,15
2016-09-01T04:27:50.722Z,15
2016-09-01T04:28:14.897Z,15
2016-09-01T04:28:39.040Z,15
2016-09-01T04:29:03.176Z,15
2016-09-01T04:29:27.330Z,15
2016-09-01T04:29:51.475Z,15
2016-09-01T04:30:15.675Z,15
2016-09-01T04:30:39.872Z,15
2016-09-01T04:31:04.035Z,15
2016-09-01T04:31:28.178Z,20
2016-09-01T04:31:52.357Z,20
2016-09-01T04:32:16.517Z,20
2016-09-01T04:32:40.666Z,20
2016-09-01T04:33:04.797Z,20
2016-09-01T04:33:28.963Z,20
2016-09-01T04:33:53.116Z,20
2016-09-01T04:34:17.291Z,20
2016-09-01T04:34:41.447Z,20
2016-09-01T04:35:05.622Z,20
2016-09-01T04:35:29.917Z,20
2016-09-01T04:35:54.073Z,20
2016-09-01T04:36:18.228Z,25
2016-09-01T04:36:42.394Z,25
2016-09-01T04:37:06.551Z,25
2016-09-01T04:37:30.674Z,25
2016-09-01T04:37:54.815Z,25
2016-09-01T04:38:18.982Z,25
2016-09-01T04:38:43.686Z,25
2016-09-01T04:39:08.885Z,25
2016-09-01T04:39:33.035Z,25
2016-09-01T04:39:57.183Z,25
2016-09-01T04:40:21.966Z,25
2016-09-01T04:40:46.118Z,30
2016-09-01T04:41:10.262Z,30
2016-09-01T04:41:34.422Z,30
2016-09-01T04:41:58.596Z,30
2016-09-01T04:42:22.746Z,30
2016-09-01T04:42:46.880Z,30
2016-09-01T04:43:11.003Z,30
2016-09-01T04:43:35.231Z,30
2016-09-01T04:43:59.364Z,30
2016-09-01T04:44:23.502Z,30
2016-09-01T04:44:47.661Z,30
2016-09-01T04:45:11.856Z,30
2016-09-01T04:45:36.082Z,35
2016-09-01T04:46:00.205Z,35
2016-09-01T04:46:24.393Z,35
2016-09-01T04:46:48.542Z,35
2016-09-01T04:47:12.692Z,35
2016-09-01T04:47:36.836Z,35
2016-09-01T04:48:00.981Z,35
2016-09-01T04:48:25.151Z,35
2016-09-01T04:48:49.280Z,35
2016-09-01T04:49:13.423Z,35
2016-09-01T04:49:37.611Z,35
2016-09-01T04:50:01.779Z,40
2016-09-01T04:50:26.148Z,40
2016-09-01T04:50:50.312Z,40
2016-09-01T04:51:14.478Z,40
2016-09-01T04:51:38.677Z,40
2016-09-01T04:52:02.805Z,40
2016-09-01T04:52:26.944Z,40
2016-09-01T04:52:51.104Z,40
2016-09-01T04:53:15.262Z,40
2016-09-01T04:53:39.427Z,40
2016-09-01T04:54:03.567Z,40
2016-09-01T04:54:27.714Z,40
2016-09-01T04:54:51.862Z,40
2016-09-01T04:55:16.031Z,45
2016-09-01T04:55:40.228Z,45
2016-09-01T04:56:04.399Z,45
2016-09-01T04:56:28.521Z,45
2016-09-01T04:56:52.673Z,45
2016-09-01T04:57:16.823Z,45
2016-09-01T04:57:40.989Z,45
2016-09-01T04:58:05.147Z,45
2016-09-01T04:58:29.297Z,45
2016-09-01T04:58:53.470Z,45
2016-09-01T04:59:17.625Z,45
2016-09-01T04:59:41.755Z,45
2016-09-01T05:00:05.956Z,50
2016-09-01T05:00:30.104Z,50
2016-09-01T05:00:54.243Z,50
2016-09-01T05:01:18.404Z,50
2016-09-01T05:01:42.564Z,50
2016-09-01T05:02:06.717Z,50
2016-09-01T05:02:30.851Z,50
2016-09-01T05:02:54.996Z,50
2016-09-01T05:03:19.143Z,50
2016-09-01T05:03:43.281Z,50
2016-09-01T05:04:07.881Z,50
2016-09-01T05:04:32.047Z,50
2016-09-01T05:04:56.224Z,50
2016-09-01T05:05:20.369Z,55
2016-09-01T05:05:44.516Z,55
2016-09-01T05:06:08.676Z,55
2016-09-01T05:06:32.858Z,55
2016-09-01T05:06:57.217Z,55
2016-09-01T05:07:21.381Z,55
2016-09-01T05:07:45.527Z,55
2016-09-01T05:08:09.685Z,55
2016-09-01T05:08:33.946Z,55
2016-09-01T05:08:59.707Z,55
2016-09-01T05:09:23.995Z,55
2016-09-01T05:09:48.318Z,55
2016-09-01T05:10:13.043Z,55
2016-09-01T05:10:37.312Z,60
2016-09-01T05:11:01.479Z,60
2016-09-01T05:11:25.647Z,60
2016-09-01T05:11:49.791Z,60
2016-09-01T05:12:13.913Z,60
2016-09-01T05:12:38.056Z,60
2016-09-01T05:13:02.229Z,60
2016-09-01T05:13:26.375Z,60
2016-09-01T05:13:50.545Z,60
2016-09-01T05:14:14.679Z,60
2016-09-01T05:14:38.822Z,60
2016-09-01T05:15:03.079Z,60
2016-09-01T05:15:27.373Z,60
2016-09-01T05:15:51.573Z,60
2016-09-01T05:16:15.784Z,60
2016-09-01T05:16:39.954Z,65
2016-09-01T05:17:04.114Z,65
2016-09-01T05:17:28.251Z,65
2016-09-01T05:17:53.619Z,65
2016-09-01T05:18:19.851Z,65
2016-09-01T05:18:44.427Z,65
2016-09-01T05:19:08.640Z,65
2016-09-01T05:19:33.152Z,65
2016-09-01T05:19:57.321Z,65
2016-09-01T05:20:21.692Z,65
2016-09-01T05:20:45.882Z,65
2016-09-01T05:21:10.060Z,65
2016-09-01T05:21:34.401Z,65
2016-09-01T05:21:58.545Z,65
2016-09-01T05:22:22.766Z,65
2016-09-01T05:22:46.922Z,65
2016-09-01T05:23:11.081Z,70
2016-09-01T05:23:35.238Z,70
2016-09-01T05:24:00.485Z,70
2016-09-01T05:24:24.645Z,70
2016-09-01T05:24:48.781Z,70
2016-09-01T05:25:12.939Z,70
2016-09-01T05:25:37.115Z,70
2016-09-01T05:26:01.266Z,70
2016-09-01T05:26:25.695Z,70
2016-09-01T05:26:49.860Z,70
2016-09-01T05:27:13.998Z,70
2016-09-01T05:27:38.150Z,70
2016-09-01T05:28:02.300Z,70
2016-09-01T05:28:26.446Z,70
2016-09-01T05:28:50.593Z,75
2016-09-01T05:29:14.749Z,75
2016-09-01T05:29:38.907Z,75
2016-09-01T05:30:03.061Z,75
2016-09-01T05:30:27.206Z,75
2016-09-01T05:30:51.353Z,75
2016-09-01T05:31:15.537Z,75
2016-09-01T05:31:39.725Z,75
2016-09-01T05:32:03.897Z,75
2016-09-01T05:32:28.063Z,75
2016-09-01T05:32:52.246Z,80
2016-09-01T05:33:16.381Z,80
2016-09-01T05:33:40.571Z,80
2016-09-01T05:34:04.727Z,80
2016-09-01T05:34:28.900Z,80
2016-09-01T05:34:53.051Z,80
2016-09-01T05:35:17.599Z,75
2016-09-01T05:35:42.880Z,75
2016-09-01T05:36:07.061Z,75
2016-09-01T05:36:31.220Z,75
2016-09-01T05:36:55.397Z,80
2016-09-01T05:37:19.523Z,80
2016-09-01T05:37:43.679Z,80
2016-09-01T05:38:07.858Z,85
2016-09-01T05:38:32.001Z,85
2016-09-01T05:38:56.160Z,85
2016-09-01T05:39:20.293Z,90
2016-09-01T05:39:44.444Z,90
2016-09-01T05:40:08.809Z,90
2016-09-01T05:40:33.001Z,90
2016-09-01T05:40:57.125Z,90
2016-09-01T05:41:21.290Z,90
2016-09-01T05:41:45.434Z,90
2016-09-01T05:42:09.568Z,90
2016-09-01T05:42:33.702Z,90
2016-09-01T05:42:57.851Z,90
2016-09-01T05:43:22.002Z,95
2016-09-01T05:43:46.220Z,95
2016-09-01T05:44:10.375Z,100
2016-09-01T05:44:34.532Z,100
2016-09-01T05:44:58.739Z,100
2016-09-01T05:45:25.198Z,100
2016-09-01T05:45:49.342Z,100
2016-09-01T05:46:13.523Z,100
2016-09-01T05:46:37.725Z,100
2016-09-01T05:47:01.844Z,105
2016-09-01T05:47:26.226Z,100
2016-09-01T05:47:50.391Z,100
2016-09-01T05:48:14.550Z,100
2016-09-01T05:48:38.762Z,95
2016-09-01T05:49:02.921Z,95
2016-09-01T05:49:27.117Z,95
2016-09-01T05:49:51.254Z,95
2016-09-01T05:50:15.408Z,95
2016-09-01T05:50:39.580Z,95
2016-09-01T05:51:03.741Z,100
2016-09-01T05:51:27.972Z,100
2016-09-01T05:51:52.141Z,100
2016-09-01T05:52:16.299Z,95
2016-09-01T05:52:40.416Z,95
2016-09-01T05:53:04.649Z,95
2016-09-01T05:53:28.799Z,95
2016-09-01T05:53:53.714Z,95
2016-09-01T05:54:17.888Z,90